createdAt,value
2019-04-03T00:00:04.376Z,0.00
2019-04-03T00:01:04.714Z,0.00
2019-04-03T00:02:04.381Z,0.00
2019-04-03T00:03:04.411Z,0.00
2019-04-03T00:04:04.707Z,0.00
2019-04-03T00:05:02.770Z,0.00
2019-04-03T00:06:03.686Z,0.00
2019-04-03T00:07:03.853Z,0.00
2019-04-03T00:08:02.617Z,0.00
2019-04-03T00:09:02.606Z,0.00
2019-04-03T00:10:02.628Z,0.00
2019-04-03T00:11:02.588Z,0.00
2019-04-03T00:12:02.577Z,0.00
2019-04-03T00:13:02.673Z,0.00
2019-04-03T00:14:02.583Z,0.00
2019-04-03T00:15:02.542Z,0.00
2019-04-03T00:16:02.540Z,0.00
2019-04-03T00:17:02.520Z,0.00
2019-04-03T00:18:02.512Z,0.00
2019-04-03T00:19:02.500Z,0.00
2019-04-03T00:20:02.519Z,0.00
2019-04-03T00:21:02.493Z,0.00
2019-04-03T00:22:02.468Z,0.00
2019-04-03T00:23:02.459Z,0.00
2019-04-03T00:24:02.504Z,0.00
2019-04-03T00:26:01.421Z,0.00
2019-04-03T00:27:02.518Z,0.00
2019-04-03T00:28:02.393Z,0.00
2019-04-03T00:29:02.382Z,0.00
2019-04-03T00:30:02.376Z,0.00
2019-04-03T00:31:02.380Z,0.00
2019-04-03T00:32:02.521Z,0.00
2019-04-03T00:33:02.346Z,0.00
2019-04-03T00:34:02.336Z,0.00
2019-04-03T00:35:02.318Z,0.00
2019-04-03T00:36:02.399Z,0.00
2019-04-03T00:37:02.320Z,0.00
2019-04-03T00:38:02.283Z,0.00
2019-04-03T00:39:02.279Z,0.00
2019-04-03T00:40:02.271Z,0.00
2019-04-03T00:41:02.415Z,0.00
2019-04-03T00:42:02.247Z,0.00
2019-04-03T00:43:02.247Z,0.00
2019-04-03T00:44:02.345Z,0.00
2019-04-03T00:45:02.212Z,0.00
2019-04-03T00:46:02.197Z,0.00
2019-04-03T00:47:02.480Z,0.00
2019-04-03T00:48:03.125Z,0.00
2019-04-03T00:49:02.185Z,0.00
2019-04-03T00:50:02.293Z,0.00
2019-04-03T00:51:02.142Z,0.00
2019-04-03T00:52:02.277Z,0.00
2019-04-03T00:53:02.124Z,0.00
2019-04-03T00:54:02.110Z,0.00
2019-04-03T00:55:02.118Z,0.00
2019-04-03T00:56:02.093Z,0.00
2019-04-03T00:57:02.093Z,0.00
2019-04-03T00:58:02.069Z,0.00
2019-04-03T00:59:02.123Z,0.00
2019-04-03T01:00:02.100Z,0.00
2019-04-03T01:01:02.042Z,0.00
2019-04-03T01:02:02.102Z,0.00
2019-04-03T01:03:02.019Z,0.00
2019-04-03T01:04:01.992Z,0.00
2019-04-03T01:05:01.991Z,0.00
2019-04-03T01:06:02.084Z,0.00
2019-04-03T01:07:01.993Z,0.00
2019-04-03T01:08:01.963Z,0.00
2019-04-03T01:09:02.005Z,0.00
2019-04-03T01:10:01.930Z,0.00
2019-04-03T01:11:01.925Z,0.00
2019-04-03T01:12:01.930Z,0.00
2019-04-03T01:13:02.234Z,0.00
2019-04-03T01:14:02.339Z,0.00
2019-04-03T01:15:02.322Z,0.00
2019-04-03T01:16:02.519Z,0.00
2019-04-03T01:17:03.380Z,0.00
2019-04-03T01:18:04.285Z,0.00
2019-04-03T01:19:01.839Z,0.00
2019-04-03T01:20:01.838Z,0.00
2019-04-03T01:21:01.979Z,0.00
2019-04-03T01:22:01.842Z,0.00
2019-04-03T01:23:01.791Z,0.00
2019-04-03T01:24:01.814Z,0.00
2019-04-03T01:25:01.896Z,0.00
2019-04-03T01:26:01.774Z,0.00
2019-04-03T01:27:01.748Z,0.00
2019-04-03T01:28:01.853Z,0.00
2019-04-03T01:29:01.772Z,0.00
2019-04-03T01:30:01.736Z,0.00
2019-04-03T01:31:01.705Z,0.00
2019-04-03T01:32:01.694Z,0.00
2019-04-03T01:33:01.678Z,0.00
2019-04-03T01:34:01.697Z,0.00
2019-04-03T01:35:01.663Z,0.00
2019-04-03T01:36:01.649Z,0.00
2019-04-03T01:37:01.634Z,0.00
2019-04-03T01:38:01.624Z,0.00
2019-04-03T01:40:00.599Z,0.00
2019-04-03T01:41:01.596Z,0.00
2019-04-03T01:42:01.588Z,0.00
2019-04-03T01:43:01.576Z,0.00
2019-04-03T01:44:01.559Z,0.00
2019-04-03T01:45:01.588Z,0.00
2019-04-03T01:46:02.111Z,0.00
2019-04-03T01:47:01.534Z,0.00
2019-04-03T01:48:01.627Z,0.00
2019-04-03T01:49:01.504Z,0.00
2019-04-03T01:50:01.492Z,0.00
2019-04-03T01:51:01.528Z,0.00
2019-04-03T01:52:01.531Z,0.00
2019-04-03T01:53:02.415Z,0.00
2019-04-03T01:54:02.913Z,0.00
2019-04-03T01:55:03.369Z,0.00
2019-04-03T01:56:04.275Z,0.00
2019-04-03T01:57:01.415Z,0.00
2019-04-03T01:58:01.406Z,0.00
2019-04-03T01:59:02.102Z,0.00
2019-04-03T02:00:01.380Z,0.00
2019-04-03T02:01:01.368Z,0.00
2019-04-03T02:02:01.358Z,0.00
2019-04-03T02:03:02.128Z,0.00
2019-04-03T02:04:01.449Z,0.00
2019-04-03T02:05:01.329Z,0.00
2019-04-03T02:06:01.460Z,0.00
2019-04-03T02:07:01.303Z,0.00
2019-04-03T02:08:01.287Z,0.00
2019-04-03T02:09:01.305Z,0.00
2019-04-03T02:10:01.277Z,0.00
2019-04-03T02:11:01.264Z,0.00
2019-04-03T02:12:01.251Z,0.00
2019-04-03T02:13:01.247Z,0.00
2019-04-03T02:14:01.289Z,0.00
2019-04-03T02:15:01.241Z,0.00
2019-04-03T02:16:01.206Z,0.00
2019-04-03T02:17:01.200Z,0.00
2019-04-03T02:18:04.119Z,0.00
2019-04-03T02:19:01.169Z,0.00
2019-04-03T02:20:01.176Z,0.00
2019-04-03T02:21:01.181Z,0.00
2019-04-03T02:22:02.095Z,0.00
2019-04-03T02:23:01.124Z,0.00
2019-04-03T02:24:01.575Z,0.00
2019-04-03T02:25:01.898Z,0.00
2019-04-03T02:26:02.468Z,0.00
2019-04-03T02:28:03.776Z,0.00
2019-04-03T02:29:01.089Z,0.00
2019-04-03T02:30:01.051Z,0.00
2019-04-03T02:31:01.254Z,0.00
2019-04-03T02:32:01.032Z,0.00
2019-04-03T02:33:01.116Z,0.00
2019-04-03T02:34:02.286Z,0.00
2019-04-03T02:35:00.995Z,0.00
2019-04-03T02:36:01.050Z,0.00
2019-04-03T02:37:01.143Z,0.00
2019-04-03T02:38:00.965Z,0.00
2019-04-03T02:39:00.983Z,0.00
2019-04-03T02:40:01.184Z,0.00
2019-04-03T02:41:03.499Z,0.00
2019-04-03T02:42:00.918Z,0.00
2019-04-03T02:43:00.905Z,0.00
2019-04-03T02:44:00.905Z,0.00
2019-04-03T02:47:01.328Z,0.00
2019-04-03T02:48:04.809Z,0.00
2019-04-03T02:49:01.232Z,0.00
2019-04-03T02:50:00.939Z,0.00
2019-04-03T02:51:00.835Z,0.00
2019-04-03T02:52:00.808Z,0.00
2019-04-03T02:53:00.793Z,0.00
2019-04-03T02:54:02.405Z,0.00
2019-04-03T02:55:00.776Z,0.00
2019-04-03T02:56:01.022Z,0.00
2019-04-03T02:57:00.756Z,0.00
2019-04-03T02:58:00.742Z,0.00
2019-04-03T02:59:00.737Z,0.00
2019-04-03T03:00:01.085Z,0.00
2019-04-03T03:01:05.580Z,0.00
2019-04-03T03:02:00.708Z,0.00
2019-04-03T03:03:00.689Z,0.00
2019-04-03T03:04:00.816Z,0.00
2019-04-03T03:05:00.667Z,0.00
2019-04-03T03:06:01.447Z,0.00
2019-04-03T03:07:03.211Z,0.00
2019-04-03T03:08:00.920Z,0.00
2019-04-03T03:09:00.624Z,0.00
2019-04-03T03:10:00.608Z,0.00
2019-04-03T03:11:00.819Z,0.00
2019-04-03T03:12:00.592Z,0.00
2019-04-03T03:13:02.288Z,0.00
2019-04-03T03:14:00.565Z,0.00
2019-04-03T03:15:00.553Z,0.00
2019-04-03T03:16:00.551Z,0.00
2019-04-03T03:17:00.543Z,0.00
2019-04-03T03:18:00.547Z,0.00
2019-04-03T03:19:01.687Z,0.00
2019-04-03T03:20:05.270Z,0.00
2019-04-03T03:21:00.823Z,0.00
2019-04-03T03:22:00.480Z,0.00
2019-04-03T03:23:01.005Z,0.00
2019-04-03T03:24:00.466Z,0.00
2019-04-03T03:25:01.274Z,0.00
2019-04-03T03:26:04.048Z,0.00
2019-04-03T03:27:00.435Z,0.00
2019-04-03T03:28:00.420Z,0.00
2019-04-03T03:29:15.069Z,0.00
2019-04-03T03:30:00.473Z,0.00
2019-04-03T03:31:04.600Z,0.00
2019-04-03T03:32:11.458Z,0.00
2019-04-03T03:33:22.733Z,0.00
2019-04-03T03:34:04.088Z,0.00
2019-04-03T03:35:07.672Z,0.00
2019-04-03T03:36:00.495Z,0.00
2019-04-03T03:37:03.192Z,0.00
2019-04-03T03:38:00.619Z,0.00
2019-04-03T03:39:00.290Z,0.00
2019-04-03T03:40:00.282Z,0.00
2019-04-03T03:41:00.286Z,0.00
2019-04-03T03:42:00.594Z,0.00
2019-04-03T03:43:03.582Z,0.00
2019-04-03T03:44:00.501Z,0.00
2019-04-03T03:45:00.260Z,0.00
2019-04-03T03:46:00.236Z,0.00
2019-04-03T03:47:02.579Z,0.00
2019-04-03T03:48:00.209Z,0.00
2019-04-03T03:49:00.283Z,0.00
2019-04-03T03:50:00.756Z,0.00
2019-04-03T03:51:00.165Z,0.00
2019-04-03T03:52:02.624Z,0.00
2019-04-03T03:53:00.145Z,0.00
2019-04-03T03:54:00.128Z,0.00
2019-04-03T03:55:00.251Z,0.00
2019-04-03T03:56:00.104Z,0.00
2019-04-03T03:57:03.843Z,0.00
2019-04-03T03:58:00.083Z,0.00
2019-04-03T03:59:00.073Z,0.00
2019-04-03T04:00:00.073Z,0.00
2019-04-03T04:01:01.017Z,0.00
2019-04-03T04:02:03.465Z,0.00
2019-04-03T04:03:00.026Z,0.00
2019-04-03T04:04:00.080Z,0.00
2019-04-03T04:05:00.032Z,0.00
2019-04-03T04:06:00.043Z,0.00
2019-04-03T04:07:03.499Z,0.00
2019-04-03T04:07:59.978Z,0.00
2019-04-03T04:09:00.262Z,0.00
2019-04-03T04:09:59.949Z,0.00
2019-04-03T04:11:00.435Z,0.00
2019-04-03T04:11:59.965Z,4.00
2019-04-03T04:13:00.020Z,4.00
2019-04-03T04:13:59.905Z,4.00
2019-04-03T04:14:59.893Z,0.00
2019-04-03T04:16:02.781Z,4.00
2019-04-03T04:17:00.320Z,4.00
2019-04-03T04:18:00.357Z,4.00
2019-04-03T04:18:59.880Z,4.00
2019-04-03T04:20:03.064Z,8.00
2019-04-03T04:20:59.825Z,8.00
2019-04-03T04:21:59.823Z,8.00
2019-04-03T04:22:59.819Z,12.00
2019-04-03T04:23:59.794Z,12.00
2019-04-03T04:25:02.563Z,12.00
2019-04-03T04:26:02.581Z,16.00
2019-04-03T04:27:00.844Z,20.00
2019-04-03T04:28:02.564Z,20.00
2019-04-03T04:28:59.757Z,24.00
2019-04-03T04:29:59.727Z,28.00
2019-04-03T04:30:59.737Z,28.00
2019-04-03T04:31:59.707Z,32.00
2019-04-03T04:32:59.868Z,40.00
2019-04-03T04:33:59.704Z,40.00
2019-04-03T04:34:59.675Z,44.00
2019-04-03T04:35:59.703Z,48.00
2019-04-03T04:37:02.078Z,52.00
2019-04-03T04:37:59.645Z,56.00
2019-04-03T04:38:59.630Z,60.00
2019-04-03T04:40:00.265Z,68.00
2019-04-03T04:41:01.549Z,76.00
2019-04-03T04:41:59.615Z,80.00
2019-04-03T04:42:59.593Z,84.00
2019-04-03T04:43:59.570Z,92.00
2019-04-03T04:44:59.572Z,100.00
2019-04-03T04:46:00.058Z,104.00
2019-04-03T04:46:59.544Z,112.00
2019-04-03T04:47:59.544Z,120.00
2019-04-03T04:49:58.532Z,128.00
2019-04-03T04:50:59.514Z,136.00
2019-04-03T04:51:59.486Z,140.00
2019-04-03T04:52:59.524Z,148.00
2019-04-03T04:54:00.157Z,160.00
2019-04-03T04:55:01.363Z,172.00
2019-04-03T04:55:59.444Z,180.00
2019-04-03T04:56:59.460Z,188.00
2019-04-03T04:57:59.418Z,200.00
2019-04-03T04:58:59.412Z,212.00
2019-04-03T04:59:59.399Z,224.00
2019-04-03T05:00:59.387Z,240.00
2019-04-03T05:03:00.918Z,276.00
2019-04-03T05:03:59.380Z,292.00
2019-04-03T05:04:59.339Z,312.00
2019-04-03T05:05:59.334Z,328.00
2019-04-03T05:07:00.171Z,352.00
2019-04-03T05:08:01.358Z,372.00
2019-04-03T05:08:59.326Z,392.00
2019-04-03T05:09:59.288Z,412.00
2019-04-03T05:10:59.299Z,424.00
2019-04-03T05:11:59.271Z,432.00
2019-04-03T05:12:59.303Z,432.00
2019-04-03T05:14:02.052Z,436.00
2019-04-03T05:14:59.241Z,432.00
2019-04-03T05:15:59.277Z,432.00
2019-04-03T05:16:59.210Z,432.00
2019-04-03T05:17:59.200Z,444.00
2019-04-03T05:19:09.055Z,456.00
2019-04-03T05:19:59.295Z,476.00
2019-04-03T05:20:59.176Z,500.00
2019-04-03T05:21:59.165Z,524.00
2019-04-03T05:22:59.328Z,552.00
2019-04-03T05:24:10.931Z,572.00
2019-04-03T05:24:59.973Z,600.00
2019-04-03T05:26:00.840Z,620.00
2019-04-03T05:26:59.098Z,632.00
2019-04-03T05:27:59.095Z,652.00
2019-04-03T05:29:03.005Z,664.00
2019-04-03T05:29:59.070Z,676.00
2019-04-03T05:30:59.775Z,692.00
2019-04-03T05:31:59.048Z,700.00
2019-04-03T05:32:59.030Z,716.00
2019-04-03T05:33:59.026Z,740.00
2019-04-03T05:34:59.012Z,764.00
2019-04-03T05:36:01.550Z,784.00
2019-04-03T05:37:00.686Z,796.00
2019-04-03T05:38:01.546Z,792.00
2019-04-03T05:38:58.968Z,792.00
2019-04-03T05:39:58.996Z,788.00
2019-04-03T05:40:59.546Z,780.00
2019-04-03T05:41:59.782Z,780.00
2019-04-03T05:43:00.155Z,784.00
2019-04-03T05:44:01.462Z,788.00
2019-04-03T05:44:59.546Z,800.00
2019-04-03T05:45:58.892Z,820.00
2019-04-03T05:46:59.889Z,852.00
2019-04-03T05:47:58.866Z,884.00
2019-04-03T05:48:59.060Z,916.00
2019-04-03T05:50:58.638Z,952.00
2019-04-03T05:51:58.835Z,960.00
2019-04-03T05:52:59.543Z,968.00
2019-04-03T05:53:58.817Z,980.00
2019-04-03T05:54:58.908Z,996.00
2019-04-03T05:55:58.798Z,1008.00
2019-04-03T05:56:58.937Z,1024.00
2019-04-03T05:57:58.842Z,1040.00
2019-04-03T05:59:01.306Z,1052.00
2019-04-03T06:00:01.895Z,1056.00
2019-04-03T06:01:05.156Z,1068.00
2019-04-03T06:01:58.712Z,1084.00
2019-04-03T06:03:01.554Z,1096.00
2019-04-03T06:04:01.539Z,1104.00
2019-04-03T06:04:58.759Z,1104.00
2019-04-03T06:05:58.786Z,1104.00
2019-04-03T06:06:58.882Z,1104.00
2019-04-03T06:07:58.652Z,1100.00
2019-04-03T06:08:58.656Z,1108.00
2019-04-03T06:09:59.192Z,1116.00
2019-04-03T06:10:58.616Z,1128.00
2019-04-03T06:12:01.616Z,1120.00
2019-04-03T06:12:58.614Z,1116.00
2019-04-03T06:13:58.643Z,1108.00
2019-04-03T06:14:58.618Z,1108.00
2019-04-03T06:15:58.572Z,1112.00
2019-04-03T06:16:58.564Z,1116.00
2019-04-03T06:17:58.540Z,1128.00
2019-04-03T06:19:06.309Z,1136.00
2019-04-03T06:19:58.801Z,1140.00
2019-04-03T06:21:01.036Z,1148.00
2019-04-03T06:21:58.498Z,1152.00
2019-04-03T06:22:58.488Z,1156.00
2019-04-03T06:23:58.477Z,1160.00
2019-04-03T06:24:58.480Z,1168.00
2019-04-03T06:26:00.793Z,1168.00
2019-04-03T06:26:58.443Z,1176.00
2019-04-03T06:27:58.440Z,1164.00
2019-04-03T06:28:58.608Z,1164.00
2019-04-03T06:29:58.585Z,1168.00
2019-04-03T06:30:58.398Z,1164.00
2019-04-03T06:31:58.702Z,1168.00
2019-04-03T06:33:00.952Z,1184.00
2019-04-03T06:33:58.366Z,1176.00
2019-04-03T06:34:58.353Z,1184.00
2019-04-03T06:35:58.592Z,1196.00
2019-04-03T06:36:58.339Z,1208.00
2019-04-03T06:37:58.364Z,1240.00
2019-04-03T06:38:58.308Z,1276.00
2019-04-03T06:39:58.300Z,1304.00
2019-04-03T06:40:58.569Z,1344.00
2019-04-03T06:41:58.285Z,1400.00
2019-04-03T06:42:58.573Z,1460.00
2019-04-03T06:43:58.260Z,1504.00
2019-04-03T06:44:58.250Z,1524.00
2019-04-03T06:47:00.221Z,1568.00
2019-04-03T06:47:58.232Z,1592.00
2019-04-03T06:48:58.200Z,1612.00
2019-04-03T06:49:58.208Z,1632.00
2019-04-03T06:50:58.265Z,1640.00
2019-04-03T06:51:58.172Z,1664.00
2019-04-03T06:52:58.154Z,1692.00
2019-04-03T06:53:59.562Z,1700.00
2019-04-03T06:54:58.394Z,1712.00
2019-04-03T06:55:58.124Z,1724.00
2019-04-03T06:56:58.165Z,1748.00
2019-04-03T06:57:58.103Z,1744.00
2019-04-03T06:58:58.210Z,1728.00
2019-04-03T06:59:58.114Z,1724.00
2019-04-03T07:01:01.019Z,1728.00
2019-04-03T07:01:58.136Z,1732.00
2019-04-03T07:02:58.044Z,1740.00
2019-04-03T07:03:58.172Z,1756.00
2019-04-03T07:04:58.025Z,1772.00
2019-04-03T07:05:58.050Z,1800.00
2019-04-03T07:06:57.995Z,1824.00
2019-04-03T07:08:00.602Z,1796.00
2019-04-03T07:09:00.530Z,1868.00
2019-04-03T07:09:57.972Z,1876.00
2019-04-03T07:10:57.957Z,1884.00
2019-04-03T07:11:57.976Z,1900.00
2019-04-03T07:12:57.948Z,1912.00
2019-04-03T07:13:58.059Z,1924.00
2019-04-03T07:14:57.925Z,1936.00
2019-04-03T07:15:57.916Z,1952.00
2019-04-03T07:17:00.187Z,1976.00
2019-04-03T07:18:00.970Z,2000.00
2019-04-03T07:18:57.904Z,2024.00
2019-04-03T07:19:57.886Z,2040.00
2019-04-03T07:20:57.854Z,2056.00
2019-04-03T07:21:57.844Z,2068.00
2019-04-03T07:22:59.053Z,2068.00
2019-04-03T07:24:00.392Z,2080.00
2019-04-03T07:24:57.811Z,2076.00
2019-04-03T07:25:57.833Z,2076.00
2019-04-03T07:26:57.797Z,2080.00
2019-04-03T07:27:57.840Z,2096.00
2019-04-03T07:28:57.770Z,2104.00
2019-04-03T07:29:57.798Z,2124.00
2019-04-03T07:30:57.798Z,2148.00
2019-04-03T07:31:58.094Z,2152.00
2019-04-03T07:32:58.470Z,2164.00
2019-04-03T07:33:58.638Z,2176.00
2019-04-03T07:34:57.738Z,2204.00
2019-04-03T07:35:57.922Z,2232.00
2019-04-03T07:36:57.696Z,2256.00
2019-04-03T07:37:58.082Z,2276.00
2019-04-03T07:38:58.482Z,2296.00
2019-04-03T07:39:58.941Z,2296.00
2019-04-03T07:40:57.632Z,2300.00
2019-04-03T07:41:57.625Z,2300.00
2019-04-03T07:42:57.614Z,2284.00
2019-04-03T07:43:58.908Z,2288.00
2019-04-03T07:44:57.591Z,2296.00
2019-04-03T07:45:57.586Z,2284.00
2019-04-03T07:46:57.876Z,2288.00
2019-04-03T07:47:57.894Z,2280.00
2019-04-03T07:48:59.899Z,2276.00
2019-04-03T07:49:57.574Z,2276.00
2019-04-03T07:50:57.534Z,2268.00
2019-04-03T07:51:57.611Z,2256.00
2019-04-03T07:52:57.581Z,2240.00
2019-04-03T07:53:57.511Z,2252.00
2019-04-03T07:54:57.556Z,2244.00
2019-04-03T07:55:57.520Z,2248.00
2019-04-03T07:56:58.158Z,2256.00
2019-04-03T07:58:00.371Z,2272.00
2019-04-03T07:58:57.428Z,2288.00
2019-04-03T07:59:57.570Z,2308.00
2019-04-03T08:00:57.726Z,2340.00
2019-04-03T08:01:58.023Z,2388.00
2019-04-03T08:02:57.395Z,2432.00
2019-04-03T08:03:57.415Z,2464.00
2019-04-03T08:05:00.059Z,2496.00
2019-04-03T08:05:57.374Z,2544.00
2019-04-03T08:06:57.378Z,2580.00
2019-04-03T08:07:57.340Z,2616.00
2019-04-03T08:09:07.948Z,2660.00
2019-04-03T08:09:58.601Z,2700.00
2019-04-03T08:10:57.523Z,2740.00
2019-04-03T08:11:57.297Z,2772.00
2019-04-03T08:12:59.373Z,2820.00
2019-04-03T08:13:57.266Z,2876.00
2019-04-03T08:14:57.264Z,2976.00
2019-04-03T08:15:57.250Z,3092.00
2019-04-03T08:16:57.296Z,3312.00
2019-04-03T08:17:57.958Z,3484.00
2019-04-03T08:18:57.234Z,3620.00
2019-04-03T08:19:57.218Z,3812.00
2019-04-03T08:21:00.886Z,3916.00
2019-04-03T08:21:57.178Z,3764.00
2019-04-03T08:22:57.413Z,3908.00
2019-04-03T08:23:57.172Z,3768.00
2019-04-03T08:24:57.155Z,3628.00
2019-04-03T08:25:57.218Z,3140.00
2019-04-03T08:26:57.127Z,3088.00
2019-04-03T08:27:57.112Z,3312.00
2019-04-03T08:28:57.311Z,3536.00
2019-04-03T08:29:57.099Z,3540.00
2019-04-03T08:30:57.127Z,3756.00
2019-04-03T08:31:57.071Z,3944.00
2019-04-03T08:32:57.066Z,4000.00
2019-04-03T08:33:59.017Z,3948.00
2019-04-03T08:34:57.079Z,3932.00
2019-04-03T08:35:57.016Z,3660.00
2019-04-03T08:36:57.351Z,3428.00
2019-04-03T08:37:59.508Z,3424.00
2019-04-03T08:38:56.990Z,3300.00
2019-04-03T08:39:58.572Z,3216.00
2019-04-03T08:40:57.169Z,3136.00
2019-04-03T08:41:57.282Z,3044.00
2019-04-03T08:42:59.410Z,3184.00
2019-04-03T08:43:57.162Z,3612.00
2019-04-03T08:44:56.935Z,3208.00
2019-04-03T08:45:56.918Z,3140.00
2019-04-03T08:46:56.936Z,3092.00
2019-04-03T08:47:56.999Z,3172.00
2019-04-03T08:48:56.902Z,3284.00
2019-04-03T08:49:57.572Z,3336.00
2019-04-03T08:50:58.386Z,3364.00
2019-04-03T08:51:56.869Z,3552.00
2019-04-03T08:52:56.838Z,3692.00
2019-04-03T08:53:56.821Z,3792.00
2019-04-03T08:54:56.832Z,3892.00
2019-04-03T08:55:56.803Z,3932.00
2019-04-03T08:56:56.807Z,3952.00
2019-04-03T08:57:56.789Z,4016.00
2019-04-03T08:58:57.869Z,4164.00
2019-04-03T08:59:58.199Z,4292.00
2019-04-03T09:00:56.763Z,4608.00
2019-04-03T09:01:56.734Z,4828.00
2019-04-03T09:02:56.776Z,4952.00
2019-04-03T09:03:56.795Z,5000.00
2019-04-03T09:04:56.704Z,4860.00
2019-04-03T09:05:56.689Z,4796.00
2019-04-03T09:06:56.710Z,4880.00
2019-04-03T09:07:56.912Z,5036.00
2019-04-03T09:08:57.825Z,5300.00
2019-04-03T09:10:00.418Z,5432.00
2019-04-03T09:10:56.672Z,5328.00
2019-04-03T09:11:56.791Z,5244.00
2019-04-03T09:12:56.617Z,5120.00
2019-04-03T09:13:56.642Z,4920.00
2019-04-03T09:14:57.774Z,4804.00
2019-04-03T09:15:58.745Z,4860.00
2019-04-03T09:16:56.570Z,5048.00
2019-04-03T09:17:56.567Z,5540.00
2019-04-03T09:18:56.806Z,6524.00
2019-04-03T09:19:57.360Z,7336.00
2019-04-03T09:20:56.778Z,7108.00
2019-04-03T09:21:56.514Z,6548.00
2019-04-03T09:22:56.500Z,5996.00
2019-04-03T09:23:57.887Z,5348.00
2019-04-03T09:24:56.543Z,4836.00
2019-04-03T09:25:56.497Z,4600.00
2019-04-03T09:26:56.464Z,4456.00
2019-04-03T09:27:56.455Z,4252.00
2019-04-03T09:28:56.432Z,4152.00
2019-04-03T09:29:56.433Z,4056.00
2019-04-03T09:30:56.650Z,3824.00
2019-04-03T09:31:56.771Z,3848.00
2019-04-03T09:32:59.366Z,4116.00
2019-04-03T09:33:57.467Z,4788.00
2019-04-03T09:34:56.382Z,5584.00
2019-04-03T09:35:59.260Z,5904.00
2019-04-03T09:36:56.700Z,5404.00
2019-04-03T09:37:56.369Z,4948.00
2019-04-03T09:38:56.315Z,4572.00
2019-04-03T09:39:56.322Z,4196.00
2019-04-03T09:40:56.309Z,3916.00
2019-04-03T09:41:56.297Z,3752.00
2019-04-03T09:42:56.284Z,3648.00
2019-04-03T09:43:56.737Z,3624.00
2019-04-03T09:44:56.715Z,3616.00
2019-04-03T09:45:59.276Z,3612.00
2019-04-03T09:46:56.295Z,3584.00
2019-04-03T09:47:56.254Z,3488.00
2019-04-03T09:48:56.216Z,3396.00
2019-04-03T09:49:56.351Z,3356.00
2019-04-03T09:50:56.463Z,3404.00
2019-04-03T09:51:56.184Z,3368.00
2019-04-03T09:52:56.174Z,3240.00
2019-04-03T09:53:57.903Z,3172.00
2019-04-03T09:54:56.423Z,3136.00
2019-04-03T09:55:56.149Z,3252.00
2019-04-03T09:57:01.662Z,3084.00
2019-04-03T09:57:56.122Z,3324.00
2019-04-03T09:58:56.718Z,3436.00
2019-04-03T09:59:56.099Z,3600.00
2019-04-03T10:00:56.171Z,3468.00
2019-04-03T10:01:56.069Z,3620.00
2019-04-03T10:02:56.387Z,3680.00
2019-04-03T10:03:56.362Z,3668.00
2019-04-03T10:04:58.626Z,3716.00
2019-04-03T10:05:56.451Z,3732.00
2019-04-03T10:06:56.247Z,3744.00
2019-04-03T10:07:56.086Z,3736.00
2019-04-03T10:08:56.011Z,3704.00
2019-04-03T10:09:55.989Z,3680.00
2019-04-03T10:10:55.981Z,3652.00
2019-04-03T10:11:55.990Z,3624.00
2019-04-03T10:12:55.957Z,3576.00
2019-04-03T10:13:57.773Z,3524.00
2019-04-03T10:14:58.442Z,3560.00
2019-04-03T10:15:55.985Z,3532.00
2019-04-03T10:16:55.943Z,3508.00
2019-04-03T10:17:55.904Z,3500.00
2019-04-03T10:18:55.886Z,3496.00
2019-04-03T10:19:55.893Z,3476.00
2019-04-03T10:20:55.871Z,3484.00
2019-04-03T10:21:55.861Z,3476.00
2019-04-03T10:22:56.349Z,3464.00
2019-04-03T10:23:55.831Z,3452.00
2019-04-03T10:24:55.830Z,3480.00
2019-04-03T10:25:55.815Z,3212.00
2019-04-03T10:26:55.981Z,3436.00
2019-04-03T10:27:55.790Z,3452.00
2019-04-03T10:28:55.940Z,3468.00
2019-04-03T10:29:56.612Z,3444.00
2019-04-03T10:30:55.758Z,3440.00
2019-04-03T10:31:56.274Z,3448.00
2019-04-03T10:32:56.943Z,3480.00
2019-04-03T10:33:55.828Z,3476.00
2019-04-03T10:34:57.400Z,3476.00
2019-04-03T10:35:55.788Z,3492.00
2019-04-03T10:36:56.011Z,3492.00
2019-04-03T10:37:55.689Z,3496.00
2019-04-03T10:38:55.827Z,3460.00
2019-04-03T10:39:55.966Z,3504.00
2019-04-03T10:40:56.236Z,3512.00
2019-04-03T10:41:55.639Z,3488.00
2019-04-03T10:42:55.621Z,3376.00
2019-04-03T10:43:55.644Z,3480.00
2019-04-03T10:44:55.694Z,3452.00
2019-04-03T10:45:55.634Z,3452.00
2019-04-03T10:46:55.630Z,3576.00
2019-04-03T10:47:56.698Z,3608.00
2019-04-03T10:48:55.563Z,3804.00
2019-04-03T10:49:55.544Z,3400.00
2019-04-03T10:50:55.566Z,3264.00
2019-04-03T10:51:55.527Z,3168.00
2019-04-03T10:52:59.479Z,3088.00
2019-04-03T10:53:55.732Z,3064.00
2019-04-03T10:54:56.827Z,3132.00
2019-04-03T10:55:55.495Z,3268.00
2019-04-03T10:56:55.472Z,3560.00
2019-04-03T10:57:55.461Z,3792.00
2019-04-03T10:58:55.478Z,4068.00
2019-04-03T10:59:55.651Z,4192.00
2019-04-03T11:00:58.717Z,4484.00
2019-04-03T11:01:55.421Z,4436.00
2019-04-03T11:02:55.409Z,4548.00
2019-04-03T11:03:55.391Z,4412.00
2019-04-03T11:05:00.510Z,4268.00
2019-04-03T11:05:56.048Z,4116.00
2019-04-03T11:06:55.732Z,3996.00
2019-04-03T11:07:55.352Z,3924.00
2019-04-03T11:08:55.404Z,3900.00
2019-04-03T11:09:55.325Z,3928.00
2019-04-03T11:10:55.921Z,3964.00
2019-04-03T11:11:55.324Z,3940.00
2019-04-03T11:12:55.703Z,3856.00
2019-04-03T11:13:55.542Z,3720.00
2019-04-03T11:14:55.975Z,3780.00
2019-04-03T11:15:55.282Z,3824.00
2019-04-03T11:16:55.257Z,3656.00
2019-04-03T11:17:55.273Z,3520.00
2019-04-03T11:18:59.973Z,3568.00
2019-04-03T11:19:55.324Z,3624.00
2019-04-03T11:20:55.217Z,3516.00
2019-04-03T11:21:56.805Z,3772.00
2019-04-03T11:23:05.391Z,3768.00
2019-04-03T11:23:55.224Z,3740.00
2019-04-03T11:24:55.250Z,3724.00
2019-04-03T11:25:55.225Z,3736.00
2019-04-03T11:26:55.145Z,3552.00
2019-04-03T11:27:55.165Z,3716.00
2019-04-03T11:28:55.121Z,3624.00
2019-04-03T11:29:55.196Z,3428.00
2019-04-03T11:30:56.314Z,3476.00
2019-04-03T11:31:55.118Z,3656.00
2019-04-03T11:32:55.081Z,3872.00
2019-04-03T11:33:55.083Z,4120.00
2019-04-03T11:34:55.309Z,4368.00
2019-04-03T11:35:55.300Z,4540.00
2019-04-03T11:36:55.130Z,4560.00
2019-04-03T11:37:55.062Z,4480.00
2019-04-03T11:39:06.870Z,4428.00
2019-04-03T11:40:02.492Z,4560.00
2019-04-03T11:40:55.001Z,4796.00
2019-04-03T11:41:56.206Z,5140.00
2019-04-03T11:42:54.974Z,5320.00
2019-04-03T11:43:55.211Z,5336.00
2019-04-03T11:44:55.216Z,5216.00
2019-04-03T11:45:54.938Z,5412.00
2019-04-03T11:46:54.934Z,5220.00
2019-04-03T11:47:55.016Z,5124.00
2019-04-03T11:48:54.902Z,4992.00
2019-04-03T11:49:54.892Z,4868.00
2019-04-03T11:50:56.964Z,4788.00
2019-04-03T11:51:55.143Z,4764.00
2019-04-03T11:52:54.858Z,4796.00
2019-04-03T11:53:54.868Z,4540.00
2019-04-03T11:54:54.855Z,4464.00
2019-04-03T11:55:54.832Z,4412.00
2019-04-03T11:56:56.629Z,4304.00
2019-04-03T11:57:55.046Z,4288.00
2019-04-03T11:58:55.316Z,4300.00
2019-04-03T11:59:56.759Z,4356.00
2019-04-03T12:00:54.785Z,4368.00
2019-04-03T12:01:54.784Z,4356.00
2019-04-03T12:02:54.744Z,4364.00
2019-04-03T12:03:55.053Z,4328.00
2019-04-03T12:04:54.768Z,4320.00
2019-04-03T12:05:54.722Z,4280.00
2019-04-03T12:06:54.938Z,4240.00
2019-04-03T12:07:56.657Z,4196.00
2019-04-03T12:08:54.700Z,4188.00
2019-04-03T12:09:55.038Z,4208.00
2019-04-03T12:10:55.025Z,4280.00
2019-04-03T12:11:55.509Z,4204.00
2019-04-03T12:12:54.921Z,4108.00
2019-04-03T12:13:54.977Z,4112.00
2019-04-03T12:14:54.633Z,4088.00
2019-04-03T12:15:57.712Z,4072.00
2019-04-03T12:16:56.960Z,4092.00
2019-04-03T12:17:54.592Z,4064.00
2019-04-03T12:18:54.903Z,4116.00
2019-04-03T12:19:54.571Z,4140.00
2019-04-03T12:20:54.566Z,4072.00
2019-04-03T12:21:54.559Z,3996.00
2019-04-03T12:22:55.622Z,3928.00
2019-04-03T12:23:54.545Z,3884.00
2019-04-03T12:24:54.515Z,3928.00
2019-04-03T12:25:54.944Z,4068.00
2019-04-03T12:26:55.478Z,4212.00
2019-04-03T12:27:54.605Z,4312.00
2019-04-03T12:28:54.816Z,4436.00
2019-04-03T12:29:55.628Z,4468.00
2019-04-03T12:30:54.843Z,4540.00
2019-04-03T12:31:54.448Z,4548.00
2019-04-03T12:32:54.730Z,4544.00
2019-04-03T12:33:59.151Z,4548.00
2019-04-03T12:34:54.447Z,4532.00
2019-04-03T12:35:54.408Z,4512.00
2019-04-03T12:36:54.788Z,4472.00
2019-04-03T12:37:54.544Z,4448.00
2019-04-03T12:38:55.747Z,4512.00
2019-04-03T12:39:54.360Z,4536.00
2019-04-03T12:40:54.624Z,4572.00